createdAt,value
2023-05-10T00:01:36.582Z,99256.69
2023-05-10T00:04:28.125Z,99256.06
2023-05-10T00:07:18.554Z,99257.34
2023-05-10T00:10:07.431Z,99253.81
2023-05-10T00:12:55.572Z,99258.59
2023-05-10T00:15:43.843Z,99256.47
2023-05-10T00:18:31.824Z,99259.38
2023-05-10T00:21:20.012Z,99253.25
2023-05-10T00:24:09.391Z,99255.34
2023-05-10T00:26:57.365Z,99255.13
2023-05-10T00:29:45.785Z,99259.66
2023-05-10T00:32:33.771Z,99267.28
2023-05-10T00:35:22.759Z,99261.94
2023-05-10T00:38:10.707Z,99262.50
2023-05-10T00:41:00.251Z,99263.47
2023-05-10T00:43:51.919Z,99259.66
2023-05-10T00:46:40.165Z,99262.97
2023-05-10T00:49:28.602Z,99261.84
2023-05-10T00:52:16.582Z,99272.38
2023-05-10T00:55:06.695Z,99269.66
2023-05-10T00:57:56.179Z,99259.22
2023-05-10T01:00:45.935Z,99260.72
2023-05-10T01:03:34.332Z,99267.38
2023-05-10T01:06:22.846Z,99267.53
2023-05-10T01:09:12.574Z,99272.25
2023-05-10T01:12:02.933Z,99268.41
2023-05-10T01:14:52.970Z,99272.00
2023-05-10T01:17:42.785Z,99268.16
2023-05-10T01:20:38.360Z,99267.00
2023-05-10T01:23:45.387Z,99263.84
2023-05-10T01:27:18.114Z,99277.44
2023-05-10T01:30:56.998Z,99278.91
2023-05-10T01:33:53.217Z,99272.75
2023-05-10T01:36:47.984Z,99278.34
2023-05-10T01:39:46.332Z,99275.69
2023-05-10T01:42:42.643Z,99281.03
2023-05-10T01:45:35.646Z,99289.44
2023-05-10T01:48:26.669Z,99287.09
2023-05-10T01:51:21.843Z,99292.75
2023-05-10T01:54:11.808Z,99288.38
2023-05-10T01:57:04.415Z,99287.78
2023-05-10T01:59:53.253Z,99284.72
2023-05-10T02:02:44.213Z,99301.41
2023-05-10T02:05:35.167Z,99301.88
2023-05-10T02:08:25.858Z,99311.28
2023-05-10T02:11:15.775Z,99300.13
2023-05-10T02:14:04.674Z,99305.13
2023-05-10T02:16:53.876Z,99307.22
2023-05-10T02:19:44.082Z,99306.78
2023-05-10T02:22:33.341Z,99312.69
2023-05-10T02:25:24.254Z,99311.56
2023-05-10T02:28:14.252Z,99303.19
2023-05-10T02:31:02.989Z,99309.13
2023-05-10T02:33:52.256Z,99307.28
2023-05-10T02:36:41.457Z,99307.06
2023-05-10T02:39:31.743Z,99309.63
2023-05-10T02:42:24.461Z,99315.88
2023-05-10T02:45:17.473Z,99314.50
2023-05-10T02:48:06.208Z,99313.13
2023-05-10T02:50:57.937Z,99315.88
2023-05-10T02:53:48.194Z,99315.69
2023-05-10T02:56:42.567Z,99313.13
2023-05-10T02:59:33.773Z,99315.78
2023-05-10T03:02:22.607Z,99323.81
2023-05-10T03:05:11.039Z,99316.13
2023-05-10T03:07:59.076Z,99317.75
2023-05-10T03:10:57.486Z,99323.34
2023-05-10T03:13:56.311Z,99330.53
2023-05-10T03:16:48.965Z,99295.13
2023-05-10T03:19:45.488Z,99316.22
2023-05-10T03:22:39.003Z,99323.06
2023-05-10T03:25:28.351Z,99323.56
2023-05-10T03:28:17.517Z,99293.16
2023-05-10T03:31:08.075Z,99334.03
2023-05-10T03:33:57.901Z,99334.03
2023-05-10T03:36:48.156Z,99333.22
2023-05-10T03:39:36.665Z,99331.34
2023-05-10T03:42:27.159Z,99329.59
2023-05-10T03:45:15.295Z,99338.88
2023-05-10T03:48:03.378Z,99338.78
2023-05-10T03:50:53.295Z,99337.72
2023-05-10T03:53:41.263Z,99339.13
2023-05-10T03:56:29.628Z,99330.91
2023-05-10T03:59:18.025Z,99337.88
2023-05-10T04:02:06.045Z,99340.41
2023-05-10T04:04:54.408Z,99345.19
2023-05-10T04:07:45.232Z,99348.44
2023-05-10T04:10:33.579Z,99347.88
2023-05-10T04:13:21.649Z,99349.59
2023-05-10T04:16:10.391Z,99353.44
2023-05-10T04:18:58.363Z,99358.09
2023-05-10T04:21:47.157Z,99371.09
2023-05-10T04:24:36.520Z,99368.41
2023-05-10T04:27:24.432Z,99349.25
2023-05-10T04:30:13.312Z,99370.50
2023-05-10T04:33:01.336Z,99372.47
2023-05-10T04:35:49.534Z,99382.69
2023-05-10T04:38:37.577Z,99375.50
2023-05-10T04:41:27.286Z,99369.56
2023-05-10T04:44:15.205Z,99374.69
2023-05-10T04:47:04.153Z,99381.66
2023-05-10T04:49:52.525Z,99383.03
2023-05-10T04:52:40.446Z,99388.03
2023-05-10T04:55:28.775Z,99385.84
2023-05-10T04:58:18.092Z,99392.34
2023-05-10T05:01:09.575Z,99396.16
2023-05-10T05:03:57.725Z,99392.13
2023-05-10T05:06:46.072Z,99400.69
2023-05-10T05:09:34.242Z,99399.41
2023-05-10T05:12:22.442Z,99396.31
2023-05-10T05:15:12.776Z,99406.16
2023-05-10T05:18:01.033Z,99406.16
2023-05-10T05:20:49.293Z,99371.22
2023-05-10T05:23:37.284Z,99407.56
2023-05-10T05:26:25.715Z,99412.53
2023-05-10T05:29:13.635Z,99412.88
2023-05-10T05:32:03.384Z,99410.69
2023-05-10T05:34:51.940Z,99413.94
2023-05-10T05:37:39.916Z,99417.88
2023-05-10T05:40:27.892Z,99414.06
2023-05-10T05:43:16.186Z,99424.25
2023-05-10T05:46:04.557Z,99415.28
2023-05-10T05:48:53.851Z,99423.69
2023-05-10T05:51:41.986Z,99427.28
2023-05-10T05:54:30.463Z,99428.09
2023-05-10T05:57:18.522Z,99422.97
2023-05-10T06:00:08.135Z,99433.56
2023-05-10T06:03:05.765Z,99432.16
2023-05-10T06:05:55.026Z,99431.00
2023-05-10T06:08:43.182Z,99429.38
2023-05-10T06:11:33.096Z,99437.38
2023-05-10T06:14:22.169Z,99450.28
2023-05-10T06:17:10.365Z,99446.34
2023-05-10T06:19:58.318Z,99450.72
2023-05-10T06:22:47.799Z,99450.63
2023-05-10T06:25:35.682Z,99453.63
2023-05-10T06:28:23.956Z,99455.72
2023-05-10T06:31:12.807Z,99454.22
2023-05-10T06:34:00.988Z,99465.59
2023-05-10T06:36:49.132Z,99464.28
2023-05-10T06:39:38.735Z,99469.06
2023-05-10T06:42:28.292Z,99453.78
2023-05-10T06:45:17.068Z,99459.09
2023-05-10T06:48:05.958Z,99436.31
2023-05-10T06:50:54.004Z,99451.97
2023-05-10T06:53:41.959Z,99467.06
2023-05-10T06:56:31.217Z,99463.91
2023-05-10T06:59:20.635Z,99473.81
2023-05-10T07:02:08.951Z,99469.56
2023-05-10T07:04:58.417Z,99470.06
2023-05-10T07:07:48.687Z,99468.69
2023-05-10T07:10:36.674Z,99475.19
2023-05-10T07:13:26.267Z,99470.13
2023-05-10T07:16:14.257Z,99480.25
2023-05-10T07:19:03.450Z,99483.44
2023-05-10T07:21:51.757Z,99484.38
2023-05-10T07:24:40.009Z,99489.13
2023-05-10T07:27:28.003Z,99483.53
2023-05-10T07:30:17.380Z,99488.00
2023-05-10T07:33:05.623Z,99485.63
2023-05-10T07:35:53.540Z,99481.38
2023-05-10T07:38:41.896Z,99480.13
2023-05-10T07:41:29.832Z,99487.72
2023-05-10T07:44:19.745Z,99487.75
2023-05-10T07:47:09.072Z,99491.72
2023-05-10T07:49:57.410Z,99486.63
2023-05-10T07:52:45.638Z,99489.50
2023-05-10T07:55:33.591Z,99490.22
2023-05-10T07:58:22.031Z,99488.81
2023-05-10T08:01:09.926Z,99488.88
2023-05-10T08:04:01.187Z,99501.69
2023-05-10T08:09:58.733Z,99497.78
2023-05-10T08:12:47.213Z,99496.25
2023-05-10T08:15:36.871Z,99500.06
2023-05-10T08:18:24.878Z,99495.88
2023-05-10T08:21:14.613Z,99497.19
2023-05-10T08:24:03.231Z,99484.88
2023-05-10T08:26:51.205Z,99502.31
2023-05-10T08:29:49.639Z,99499.72
2023-05-10T08:32:38.950Z,99500.69
2023-05-10T08:35:27.325Z,99507.06
2023-05-10T08:38:16.947Z,99482.88
2023-05-10T08:41:06.248Z,99509.84
2023-05-10T08:43:55.684Z,99509.41
2023-05-10T08:46:48.556Z,99513.66
2023-05-10T08:49:38.992Z,99508.66
2023-05-10T08:52:28.438Z,99514.00
2023-05-10T08:55:18.709Z,99517.94
2023-05-10T08:58:07.215Z,99522.75
2023-05-10T09:00:55.809Z,99516.63
2023-05-10T09:03:44.525Z,99517.50
2023-05-10T09:06:33.097Z,99517.63
2023-05-10T09:09:22.383Z,99525.44
2023-05-10T09:12:12.532Z,99525.25
2023-05-10T09:17:51.321Z,99526.69
2023-05-10T09:20:40.182Z,99522.28
2023-05-10T09:23:33.045Z,99529.03
2023-05-10T09:26:24.486Z,99530.72
2023-05-10T09:29:15.995Z,99531.47
2023-05-10T09:32:05.511Z,99543.69
2023-05-10T09:34:53.671Z,99545.88
2023-05-10T09:37:43.497Z,99541.56
2023-05-10T09:40:32.680Z,99551.63
2023-05-10T09:43:21.781Z,99568.78
2023-05-10T09:46:12.612Z,99573.72
2023-05-10T09:49:00.618Z,99559.06
2023-05-10T09:51:48.995Z,99562.03
2023-05-10T09:54:37.694Z,99559.63
2023-05-10T09:57:26.845Z,99555.78
2023-05-10T10:00:19.938Z,99551.97
2023-05-10T10:03:15.071Z,99562.94
2023-05-10T10:06:03.553Z,99556.34
2023-05-10T10:08:52.594Z,99556.16
2023-05-10T10:11:42.399Z,99562.22
2023-05-10T10:14:30.770Z,99558.44
2023-05-10T10:17:19.788Z,99551.97
2023-05-10T10:20:12.227Z,99565.28
2023-05-10T10:23:00.438Z,99554.47
2023-05-10T10:25:50.214Z,99565.81
2023-05-10T10:28:43.228Z,99563.13
2023-05-10T10:31:40.039Z,99565.91
2023-05-10T10:34:29.881Z,99562.53
2023-05-10T10:37:19.762Z,99570.16
2023-05-10T10:40:24.978Z,99571.66
2023-05-10T10:43:26.621Z,99573.63
2023-05-10T10:46:16.523Z,99579.53
2023-05-10T10:49:11.911Z,99579.69
2023-05-10T10:52:16.737Z,99583.03
2023-05-10T10:55:09.109Z,99580.13
2023-05-10T10:58:03.423Z,99586.47
2023-05-10T11:00:51.713Z,99574.78
2023-05-10T11:03:40.219Z,99578.28
2023-05-10T11:06:32.874Z,99573.78
2023-05-10T11:09:21.704Z,99567.31
2023-05-10T11:12:11.779Z,99518.22
2023-05-10T11:14:59.940Z,99571.34
2023-05-10T11:17:53.193Z,99572.78
2023-05-10T11:20:41.462Z,99576.66
2023-05-10T11:23:33.703Z,99577.47
2023-05-10T11:26:24.152Z,99573.31
2023-05-10T11:29:15.100Z,99572.31
2023-05-10T11:32:03.520Z,99574.38
2023-05-10T11:34:51.427Z,99577.72
2023-05-10T11:37:42.525Z,99582.22
2023-05-10T11:40:30.525Z,99584.41
2023-05-10T11:43:18.706Z,99586.66
2023-05-10T11:46:09.207Z,99569.81
2023-05-10T11:49:01.843Z,99572.75
2023-05-10T11:51:49.795Z,99584.44
2023-05-10T11:54:38.140Z,99583.16
2023-05-10T11:57:29.221Z,99588.63
2023-05-10T12:00:18.039Z,99590.63
2023-05-10T12:03:08.255Z,99593.75
2023-05-10T12:05:56.966Z,99592.69
2023-05-10T12:08:47.625Z,99590.50
2023-05-10T12:11:39.660Z,99585.81
2023-05-10T12:14:29.380Z,99585.31
2023-05-10T12:17:17.271Z,99581.09
2023-05-10T12:20:23.627Z,99596.56
2023-05-10T12:23:11.975Z,99564.03
2023-05-10T12:26:04.186Z,99595.69
2023-05-10T12:28:52.404Z,99581.91
2023-05-10T12:31:51.463Z,99588.06
2023-05-10T12:34:39.704Z,99597.81
2023-05-10T12:37:31.153Z,99597.63
2023-05-10T12:40:19.610Z,99578.28
2023-05-10T12:43:07.534Z,99603.19
2023-05-10T12:45:55.915Z,99601.03
2023-05-10T12:48:45.672Z,99597.47
2023-05-10T12:51:33.641Z,99602.59
2023-05-10T12:54:22.984Z,99592.53
2023-05-10T12:57:11.207Z,99603.78
2023-05-10T12:59:59.253Z,99602.66
2023-05-10T13:02:47.231Z,99608.03
2023-05-10T13:05:35.407Z,99603.09
2023-05-10T13:08:23.401Z,99599.75
2023-05-10T13:11:13.040Z,99607.19
2023-05-10T13:14:01.408Z,99611.50
2023-05-10T13:16:49.417Z,99603.97
2023-05-10T13:19:37.414Z,99613.22
2023-05-10T13:22:36.274Z,99602.72
2023-05-10T13:25:27.716Z,99607.00
2023-05-10T13:28:16.981Z,99606.47
2023-05-10T13:31:05.213Z,99605.41
2023-05-10T13:33:53.156Z,99598.38
2023-05-10T13:36:41.255Z,99601.59
2023-05-10T13:39:31.930Z,99595.06
2023-05-10T13:42:20.085Z,99591.91
2023-05-10T13:45:10.701Z,99611.84
2023-05-10T13:47:58.665Z,99607.13
2023-05-10T13:50:47.276Z,99608.00
2023-05-10T13:53:35.209Z,99606.53
2023-05-10T13:56:23.324Z,99609.81
2023-05-10T13:59:11.272Z,99584.69
2023-05-10T14:02:01.069Z,99600.53
2023-05-10T14:04:49.333Z,99598.97
2023-05-10T14:07:37.220Z,99599.88
2023-05-10T14:10:25.135Z,99597.66
2023-05-10T14:13:13.089Z,99599.75
2023-05-10T14:16:02.244Z,99610.16
2023-05-10T14:18:51.552Z,99582.91
2023-05-10T14:21:39.908Z,99597.75
2023-05-10T14:24:27.831Z,99595.03
2023-05-10T14:27:16.158Z,99589.31
2023-05-10T14:30:04.588Z,99580.59
2023-05-10T14:32:54.863Z,99587.94
2023-05-10T14:35:44.172Z,99575.88
2023-05-10T14:38:32.097Z,99577.00
2023-05-10T14:41:20.450Z,99573.28
2023-05-10T14:44:08.435Z,99585.16
2023-05-10T14:46:56.844Z,99575.72
2023-05-10T14:49:44.765Z,99580.59
2023-05-10T14:52:34.447Z,99580.69
2023-05-10T14:55:22.460Z,99585.25
2023-05-10T14:58:10.603Z,99576.13
2023-05-10T15:00:58.911Z,99579.00
2023-05-10T15:03:47.241Z,99584.47
2023-05-10T15:06:36.804Z,99571.09
2023-05-10T15:09:26.113Z,99578.91
2023-05-10T15:12:14.468Z,99578.72
2023-05-10T15:15:03.025Z,99582.16
2023-05-10T15:17:51.411Z,99572.25
2023-05-10T15:20:39.388Z,99583.91
2023-05-10T15:23:27.799Z,99581.28
2023-05-10T15:26:17.322Z,99583.50
2023-05-10T15:29:05.251Z,99587.28
2023-05-10T15:31:53.720Z,99585.09
2023-05-10T15:34:41.932Z,99580.16
2023-05-10T15:37:30.040Z,99590.41
2023-05-10T15:40:18.185Z,99576.91
2023-05-10T15:43:07.917Z,99590.03
2023-05-10T15:45:55.786Z,99592.75
2023-05-10T15:48:43.959Z,99597.38
2023-05-10T15:51:35.369Z,99591.75
2023-05-10T15:54:24.493Z,99590.47
2023-05-10T15:57:12.785Z,99585.81
2023-05-10T16:00:02.327Z,99586.41
2023-05-10T16:03:00.288Z,99585.34
2023-05-10T16:05:48.427Z,99591.06
2023-05-10T16:08:36.580Z,99523.56
2023-05-10T16:11:24.566Z,99593.50
2023-05-10T16:14:12.697Z,99587.84
2023-05-10T16:17:03.132Z,99581.63
2023-05-10T16:19:51.189Z,99590.28
2023-05-10T16:22:39.415Z,99593.25
2023-05-10T16:25:27.298Z,99601.56
2023-05-10T16:28:15.379Z,99595.38
2023-05-10T16:31:03.768Z,99591.34
2023-05-10T16:33:53.164Z,99585.97
2023-05-10T16:36:41.080Z,99590.81
2023-05-10T16:39:29.238Z,99585.44
2023-05-10T16:42:17.836Z,99585.41
2023-05-10T16:45:09.012Z,99595.66
2023-05-10T16:47:57.220Z,99592.94
2023-05-10T16:50:46.743Z,99598.34
2023-05-10T16:53:34.729Z,99602.78
2023-05-10T16:56:23.280Z,99596.41
2023-05-10T16:59:11.519Z,99600.66
2023-05-10T17:01:59.521Z,99602.19
2023-05-10T17:04:47.696Z,99603.53
2023-05-10T17:07:37.107Z,99609.41
2023-05-10T17:10:25.007Z,99601.06
2023-05-10T17:13:13.386Z,99608.59
2023-05-10T17:16:03.477Z,99613.94
2023-05-10T17:18:51.961Z,99613.25
2023-05-10T17:21:39.914Z,99609.97
2023-05-10T17:24:29.753Z,99607.81
2023-05-10T17:27:17.652Z,99603.16
2023-05-10T17:30:06.995Z,99609.13
2023-05-10T17:32:55.032Z,99600.91
2023-05-10T17:35:46.538Z,99604.31
2023-05-10T17:38:34.489Z,99609.72
2023-05-10T17:41:24.828Z,99609.84
2023-05-10T17:44:13.347Z,99620.47
2023-05-10T17:47:02.263Z,99610.84
2023-05-10T17:49:50.188Z,99620.28
2023-05-10T17:52:38.636Z,99614.78
2023-05-10T17:55:27.095Z,99614.03
2023-05-10T17:58:16.649Z,99615.84
2023-05-10T18:01:04.792Z,99616.00
2023-05-10T18:03:53.393Z,99617.56
2023-05-10T18:06:41.610Z,99617.31
2023-05-10T18:09:30.501Z,99565.81
2023-05-10T18:12:18.723Z,99610.81
2023-05-10T18:15:09.567Z,99608.06
2023-05-10T18:17:57.540Z,99618.69
2023-05-10T18:20:46.806Z,99615.03
2023-05-10T18:23:34.728Z,99622.00
2023-05-10T18:26:23.021Z,99623.75
2023-05-10T18:29:10.962Z,99624.22
2023-05-10T18:32:00.588Z,99629.75
2023-05-10T18:34:48.506Z,99632.06
2023-05-10T18:37:38.557Z,99568.88
2023-05-10T18:40:28.535Z,99637.00
2023-05-10T18:43:16.794Z,99619.50
2023-05-10T18:46:04.890Z,99616.47
2023-05-10T18:48:55.548Z,99632.63
2023-05-10T18:51:43.496Z,99642.84
2023-05-10T18:54:31.721Z,99644.25
2023-05-10T18:57:21.024Z,99642.97
2023-05-10T19:00:11.480Z,99639.13
2023-05-10T19:02:59.477Z,99648.13
2023-05-10T19:05:49.417Z,99631.25
2023-05-10T19:08:37.345Z,99653.69
2023-05-10T19:11:26.199Z,99650.06
2023-05-10T19:14:14.216Z,99653.38
2023-05-10T19:17:02.492Z,99659.69
2023-05-10T19:19:50.620Z,99667.50
2023-05-10T19:25:30.756Z,99661.34
2023-05-10T19:28:19.085Z,99659.13
2023-05-10T19:31:08.762Z,99664.56
2023-05-10T19:33:59.985Z,99666.81
2023-05-10T19:36:48.635Z,99676.34
2023-05-10T19:39:37.954Z,99667.13
2023-05-10T19:42:25.954Z,99663.19
2023-05-10T19:45:15.954Z,99666.66
2023-05-10T19:48:04.513Z,99677.69
2023-05-10T19:50:53.450Z,99657.69
2023-05-10T19:53:44.579Z,99678.47
2023-05-10T19:56:34.259Z,99686.28
2023-05-10T19:59:22.254Z,99683.50
2023-05-10T20:02:10.628Z,99683.38
2023-05-10T20:04:58.668Z,99683.31
2023-05-10T20:07:46.914Z,99687.34
2023-05-10T20:10:34.798Z,99694.00
2023-05-10T20:13:24.724Z,99691.81
2023-05-10T20:16:12.677Z,99692.38
2023-05-10T20:19:01.401Z,99697.03
2023-05-10T20:21:49.349Z,99691.47
2023-05-10T20:24:37.675Z,99700.31
2023-05-10T20:27:25.666Z,99696.50
2023-05-10T20:30:15.928Z,99698.81
2023-05-10T20:33:04.207Z,99701.59
2023-05-10T20:35:52.404Z,99711.13
2023-05-10T20:38:40.324Z,99706.81
2023-05-10T20:41:28.488Z,99708.34
2023-05-10T20:44:16.436Z,99697.97
2023-05-10T20:47:06.787Z,99700.88
2023-05-10T20:49:54.755Z,99708.72
2023-05-10T20:52:42.963Z,99705.91
2023-05-10T20:55:30.907Z,99702.06
2023-05-10T20:58:19.125Z,99702.16
2023-05-10T21:01:07.050Z,99704.84
2023-05-10T21:03:56.347Z,99699.38
2023-05-10T21:06:44.608Z,99704.84
2023-05-10T21:09:32.895Z,99698.56
2023-05-10T21:12:20.842Z,99704.94
2023-05-10T21:15:10.404Z,99701.84
2023-05-10T21:17:59.762Z,99700.38
2023-05-10T21:20:49.618Z,99684.31
2023-05-10T21:23:37.537Z,99702.81
2023-05-10T21:26:26.117Z,99700.91
2023-05-10T21:29:14.137Z,99690.59
2023-05-10T21:32:02.610Z,99626.78
2023-05-10T21:34:51.083Z,99693.78
2023-05-10T21:37:40.682Z,99695.34
2023-05-10T21:40:29.629Z,99699.00
2023-05-10T21:43:17.792Z,99702.97
2023-05-10T21:46:05.907Z,99706.47
2023-05-10T21:48:54.131Z,99680.00
2023-05-10T21:51:42.049Z,99693.88
2023-05-10T21:54:31.689Z,99679.16
2023-05-10T21:57:21.366Z,99700.19
2023-05-10T22:00:11.371Z,99702.63
2023-05-10T22:03:00.714Z,99700.75
2023-05-10T22:05:49.099Z,99677.16
2023-05-10T22:08:37.032Z,99690.69
2023-05-10T22:11:26.773Z,99694.03
2023-05-10T22:14:14.739Z,99697.66
2023-05-10T22:17:02.693Z,99699.97
2023-05-10T22:19:50.641Z,99697.13
2023-05-10T22:22:38.720Z,99708.91
2023-05-10T22:25:27.030Z,99695.59
2023-05-10T22:28:16.481Z,99706.94
2023-05-10T22:31:04.684Z,99704.66
2023-05-10T22:33:53.069Z,99710.09
2023-05-10T22:36:41.013Z,99702.13
2023-05-10T22:39:29.233Z,99705.22
2023-05-10T22:42:17.467Z,99688.28
2023-05-10T22:45:08.813Z,99706.50
2023-05-10T22:47:56.791Z,99705.91
2023-05-10T22:50:45.010Z,99672.41
2023-05-10T22:53:32.900Z,99705.13
2023-05-10T22:56:21.949Z,99704.28
2023-05-10T22:59:10.071Z,99706.72
2023-05-10T23:02:00.220Z,99712.94
2023-05-10T23:04:48.233Z,99706.19
2023-05-10T23:07:36.904Z,99722.13
2023-05-10T23:10:25.118Z,99720.09
2023-05-10T23:13:13.319Z,99720.50
2023-05-10T23:16:05.998Z,99713.34
2023-05-10T23:18:55.561Z,99710.28
2023-05-10T23:21:43.533Z,99723.75
2023-05-10T23:24:31.451Z,99723.72
2023-05-10T23:27:19.333Z,99717.81
2023-05-10T23:30:08.872Z,99720.94
2023-05-10T23:32:56.831Z,99715.16
2023-05-10T23:35:46.304Z,99717.22
2023-05-10T23:38:34.244Z,99719.66
2023-05-10T23:41:22.789Z,99724.38
2023-05-10T23:44:10.832Z,99724.34
2023-05-10T23:46:58.744Z,99724.13
2023-05-10T23:49:46.644Z,99726.63
2023-05-10T23:52:36.379Z,99726.63
2023-05-10T23:55:24.262Z,99709.41
2023-05-10T23:58:12.554Z,99711.84
